Time;durP1;ratioP1;P1;durP2;ratioP2;P2;SDS_P1;SDS_P2;PMS_P1;PMS_P2;Temp;Humidity;BMP_temperature;BMP_pressure;BME280_temperature;BME280_humidity;BME280_pressure;Samples;Min_cycle;Max_cycle;Signal;HPM_P1;HPM_P2
2024/02/23 00:00:47;;;;;;;12.60;1.58;;;;;;;;;;5040645;28;20052;-65
2024/02/23 00:03:13;;;;;;;18.17;2.03;;;;;;;;;;5038525;28;20472;-65
2024/02/23 00:05:39;;;;;;;12.82;1.88;;;;;;;;;;5037644;28;20053;-65
2024/02/23 00:08:05;;;;;;;11.55;1.83;;;;;;;;;;5040687;28;20047;-65
2024/02/23 00:10:31;;;;;;;8.25;1.52;;;;;;;;;;5025142;28;20140;-65
2024/02/23 00:12:58;;;;;;;11.23;2.00;;;;;;;;;;5006402;28;20041;-65
2024/02/23 00:15:25;;;;;;;17.85;2.00;;;;;;;;;;5020229;28;20527;-65
2024/02/23 00:17:51;;;;;;;13.05;1.83;;;;;;;;;;5017950;28;20077;-65
2024/02/23 00:20:17;;;;;;;13.30;2.00;;;;;;;;;;5023423;28;20504;-65
2024/02/23 00:22:43;;;;;;;14.95;1.83;;;;;;;;;;5022418;28;20056;-65
2024/02/23 00:25:10;;;;;;;14.02;2.92;;;;;;;;;;5021757;28;20069;-65
2024/02/23 00:27:36;;;;;;;11.70;1.67;;;;;;;;;;5006020;28;20045;-65
2024/02/23 00:30:04;;;;;;;8.02;1.33;;;;;;;;;;5021624;28;20049;-65
2024/02/23 00:32:30;;;;;;;12.88;2.95;;;;;;;;;;5021432;28;20088;-65
2024/02/23 00:34:57;;;;;;;7.47;1.20;;;;;;;;;;5018869;28;20439;-65
2024/02/23 00:37:24;;;;;;;5.70;1.05;;;;;;;;;;5021903;28;20095;-65
2024/02/23 00:39:50;;;;;;;7.55;1.13;;;;;;;;;;5023656;28;20033;-65
2024/02/23 00:42:16;;;;;;;5.32;1.67;;;;;;;;;;5020782;28;20133;-65
2024/02/23 00:44:42;;;;;;;10.52;2.90;;;;;;;;;;5024208;28;20393;-65
2024/02/23 00:47:09;;;;;;;13.90;3.03;;;;;;;;;;5034503;28;20091;-65
2024/02/23 00:49:35;;;;;;;14.00;2.38;;;;;;;;;;5038896;28;20052;-65
2024/02/23 00:52:01;;;;;;;13.10;2.00;;;;;;;;;;5040630;28;20115;-65
2024/02/23 00:54:28;;;;;;;12.40;2.63;;;;;;;;;;5041144;28;20442;-65
2024/02/23 00:56:54;;;;;;;27.10;3.08;;;;;;;;;;5034946;28;20053;-65
2024/02/23 00:59:20;;;;;;;20.63;3.55;;;;;;;;;;5031709;28;20087;-65
2024/02/23 01:01:47;;;;;;;16.40;2.72;;;;;;;;;;5038638;28;20049;-65
2024/02/23 01:04:13;;;;;;;18.25;3.03;;;;;;;;;;5019850;28;20053;-65
2024/02/23 01:06:39;;;;;;;18.33;2.80;;;;;;;;;;5035491;28;20052;-65
2024/02/23 01:09:05;;;;;;;17.50;3.22;;;;;;;;;;5043091;28;20608;-65
2024/02/23 01:11:31;;;;;;;14.70;2.20;;;;;;;;;;5043076;28;20041;-65
2024/02/23 01:13:58;;;;;;;20.85;3.03;;;;;;;;;;5033116;28;20071;-65
2024/02/23 01:16:24;;;;;;;19.33;3.08;;;;;;;;;;5040637;28;20053;-65
2024/02/23 01:18:50;;;;;;;20.95;3.63;;;;;;;;;;5032889;28;20048;-65
2024/02/23 01:21:16;;;;;;;19.40;3.72;;;;;;;;;;5021967;28;20042;-65
2024/02/23 01:23:42;;;;;;;16.10;3.15;;;;;;;;;;5025264;28;20045;-65
2024/02/23 01:26:08;;;;;;;21.30;3.17;;;;;;;;;;5023585;28;20060;-65
2024/02/23 01:28:34;;;;;;;15.38;3.03;;;;;;;;;;5026080;28;20053;-65
2024/02/23 01:31:01;;;;;;;19.35;4.57;;;;;;;;;;5026764;28;20057;-65
2024/02/23 01:33:27;;;;;;;17.27;3.42;;;;;;;;;;5024959;28;20879;-65
2024/02/23 01:35:53;;;;;;;16.13;2.92;;;;;;;;;;5024510;28;20049;-65
2024/02/23 01:38:21;;;;;;;17.75;3.38;;;;;;;;;;5026170;28;20100;-65
2024/02/23 01:40:47;;;;;;;15.25;2.40;;;;;;;;;;5026600;28;20470;-65
2024/02/23 01:43:14;;;;;;;15.90;2.42;;;;;;;;;;5023762;28;20037;-65
2024/02/23 01:45:40;;;;;;;20.50;2.83;;;;;;;;;;5020930;28;20060;-65
2024/02/23 01:48:07;;;;;;;17.10;2.90;;;;;;;;;;5033158;28;20126;-65
2024/02/23 01:50:33;;;;;;;12.77;2.38;;;;;;;;;;5042578;28;20045;-65
2024/02/23 01:53:01;;;;;;;12.68;3.25;;;;;;;;;;5040249;28;20400;-65
2024/02/23 01:55:27;;;;;;;16.95;2.88;;;;;;;;;;5043499;28;20095;-65
2024/02/23 01:57:54;;;;;;;14.80;2.50;;;;;;;;;;5040615;28;20099;-65
2024/02/23 02:00:21;;;;;;;15.57;3.63;;;;;;;;;;5030594;28;20055;-65
2024/02/23 02:02:48;;;;;;;17.10;2.67;;;;;;;;;;5040318;28;20051;-65
2024/02/23 02:05:14;;;;;;;18.10;3.03;;;;;;;;;;5034351;28;20041;-65
2024/02/23 02:07:41;;;;;;;17.00;2.38;;;;;;;;;;5041921;28;20049;-65
2024/02/23 02:10:09;;;;;;;18.45;2.67;;;;;;;;;;5041115;28;20049;-65
2024/02/23 02:12:35;;;;;;;14.90;3.05;;;;;;;;;;5041727;28;20048;-65
2024/02/23 02:15:02;;;;;;;12.48;2.70;;;;;;;;;;5037215;28;20046;-65
2024/02/23 02:17:28;;;;;;;18.83;2.60;;;;;;;;;;5031536;28;20053;-65
2024/02/23 02:19:55;;;;;;;17.48;2.85;;;;;;;;;;5035501;28;20037;-65
2024/02/23 02:22:21;;;;;;;14.95;2.50;;;;;;;;;;5021138;28;20076;-65
2024/02/23 02:24:48;;;;;;;13.20;2.72;;;;;;;;;;5022977;28;20188;-65
2024/02/23 02:27:14;;;;;;;16.42;2.95;;;;;;;;;;5025686;28;20467;-65
2024/02/23 02:29:41;;;;;;;13.30;2.55;;;;;;;;;;5023692;28;20053;-65
2024/02/23 02:32:07;;;;;;;12.57;3.00;;;;;;;;;;5022941;28;20096;-65
2024/02/23 02:34:33;;;;;;;18.85;3.67;;;;;;;;;;5024794;28;20140;-65
2024/02/23 02:37:01;;;;;;;14.10;2.42;;;;;;;;;;5024875;28;20456;-65
2024/02/23 02:39:27;;;;;;;11.68;2.03;;;;;;;;;;5023592;28;20060;-65
2024/02/23 02:41:53;;;;;;;9.27;2.58;;;;;;;;;;5022394;28;20110;-65
2024/02/23 02:44:20;;;;;;;14.68;3.10;;;;;;;;;;5023238;28;20056;-65
2024/02/23 02:46:46;;;;;;;22.33;3.75;;;;;;;;;;5033183;28;20045;-65
2024/02/23 02:49:12;;;;;;;15.18;3.17;;;;;;;;;;5041092;28;20045;-65
2024/02/23 02:51:38;;;;;;;14.48;2.35;;;;;;;;;;5033748;28;20111;-65
2024/02/23 02:54:05;;;;;;;15.38;2.78;;;;;;;;;;5031199;28;20068;-65
2024/02/23 02:56:31;;;;;;;11.43;2.25;;;;;;;;;;5021838;28;20053;-65
2024/02/23 02:58:57;;;;;;;11.32;1.95;;;;;;;;;;5025847;28;20492;-65
2024/02/23 03:01:23;;;;;;;12.93;4.00;;;;;;;;;;5027158;28;20053;-65
2024/02/23 03:03:49;;;;;;;14.25;2.53;;;;;;;;;;5025696;28;20099;-65
2024/02/23 03:06:16;;;;;;;12.85;2.47;;;;;;;;;;5026797;28;20037;-65
2024/02/23 03:08:43;;;;;;;13.65;2.33;;;;;;;;;;5031314;28;20052;-65
2024/02/23 03:11:09;;;;;;;15.30;2.40;;;;;;;;;;5021214;28;20542;-65
2024/02/23 03:13:35;;;;;;;10.55;2.85;;;;;;;;;;5030311;28;20055;-65
2024/02/23 03:16:01;;;;;;;12.18;2.42;;;;;;;;;;5028699;28;20480;-65
2024/02/23 03:18:27;;;;;;;9.73;2.25;;;;;;;;;;5021911;28;20177;-65
2024/02/23 03:20:55;;;;;;;11.30;1.65;;;;;;;;;;5030671;28;20054;-65
2024/02/23 03:23:21;;;;;;;9.63;1.75;;;;;;;;;;5031818;28;20217;-65
2024/02/23 03:25:47;;;;;;;16.20;2.50;;;;;;;;;;5034988;28;20118;-65
2024/02/23 03:28:13;;;;;;;19.33;1.88;;;;;;;;;;5025970;28;20077;-65
2024/02/23 03:30:39;;;;;;;10.38;1.85;;;;;;;;;;5039497;28;20377;-65
2024/02/23 03:33:06;;;;;;;13.23;2.08;;;;;;;;;;5039503;28;20071;-65
2024/02/23 03:35:32;;;;;;;15.50;2.42;;;;;;;;;;5041315;28;20045;-65
2024/02/23 03:37:58;;;;;;;12.20;1.83;;;;;;;;;;5058756;28;20593;-65
2024/02/23 03:40:24;;;;;;;11.57;2.33;;;;;;;;;;5055021;28;20075;-65
2024/02/23 03:42:50;;;;;;;11.18;2.22;;;;;;;;;;5053880;28;20048;-65
2024/02/23 03:45:16;;;;;;;10.93;2.13;;;;;;;;;;5060186;28;20045;-65
2024/02/23 03:47:43;;;;;;;10.32;2.28;;;;;;;;;;5057641;28;20094;-65
2024/02/23 03:50:09;;;;;;;13.15;1.65;;;;;;;;;;5025611;28;20045;-65
2024/02/23 03:52:35;;;;;;;19.73;3.20;;;;;;;;;;5023764;28;20080;-65
2024/02/23 03:55:03;;;;;;;20.35;3.45;;;;;;;;;;5025957;28;20397;-65
2024/02/23 03:57:29;;;;;;;9.18;1.77;;;;;;;;;;5026347;28;20150;-65
2024/02/23 03:59:56;;;;;;;15.10;2.78;;;;;;;;;;5041961;28;20041;-65
2024/02/23 04:02:22;;;;;;;23.83;2.63;;;;;;;;;;5043901;28;20135;-65
2024/02/23 04:04:49;;;;;;;16.15;2.80;;;;;;;;;;5007866;28;20070;-65
2024/02/23 04:07:15;;;;;;;13.30;2.03;;;;;;;;;;5044778;28;20489;-65
2024/02/23 04:09:41;;;;;;;17.02;2.47;;;;;;;;;;5043169;28;20083;-65
2024/02/23 04:12:07;;;;;;;9.98;2.22;;;;;;;;;;5051564;28;20037;-65
2024/02/23 04:14:36;;;;;;;13.27;2.42;;;;;;;;;;5054569;28;20430;-65
2024/02/23 04:17:04;;;;;;;14.88;2.50;;;;;;;;;;5053188;28;20075;-65
2024/02/23 04:19:30;;;;;;;14.50;2.13;;;;;;;;;;5045929;28;20124;-65
2024/02/23 04:21:56;;;;;;;20.15;2.53;;;;;;;;;;5028094;28;20140;-65
2024/02/23 04:24:22;;;;;;;13.88;2.78;;;;;;;;;;5027840;28;20045;-65
2024/02/23 04:26:48;;;;;;;11.00;1.70;;;;;;;;;;5040939;28;20051;-65
2024/02/23 04:29:15;;;;;;;16.63;2.20;;;;;;;;;;5026680;28;20044;-65
2024/02/23 04:31:41;;;;;;;11.40;2.25;;;;;;;;;;5026714;28;20702;-65
2024/02/23 04:34:07;;;;;;;13.57;2.03;;;;;;;;;;5042628;28;20045;-65
2024/02/23 04:36:33;;;;;;;15.57;2.60;;;;;;;;;;5023830;28;21274;-65
2024/02/23 04:38:59;;;;;;;7.63;1.88;;;;;;;;;;5024815;28;20076;-65
2024/02/23 04:41:26;;;;;;;25.83;4.70;;;;;;;;;;5026616;28;20049;-65
2024/02/23 04:43:58;;;;;;;13.00;1.88;;;;;;;;;;5028331;28;20136;-65
2024/02/23 04:46:24;;;;;;;12.73;1.80;;;;;;;;;;5030054;28;20122;-65
2024/02/23 04:48:50;;;;;;;8.88;2.50;;;;;;;;;;5045876;28;20081;-65
2024/02/23 04:51:17;;;;;;;8.05;1.77;;;;;;;;;;5029806;28;20120;-65
2024/02/23 04:53:43;;;;;;;11.80;1.60;;;;;;;;;;5061803;28;20052;-65
2024/02/23 04:56:09;;;;;;;9.80;2.90;;;;;;;;;;5054832;28;20037;-65
2024/02/23 04:58:37;;;;;;;8.63;1.40;;;;;;;;;;5035674;28;20037;-65
2024/02/23 05:01:03;;;;;;;20.52;3.10;;;;;;;;;;5038420;28;20076;-65
2024/02/23 05:03:30;;;;;;;11.98;2.20;;;;;;;;;;5034110;28;20521;-65
2024/02/23 05:05:56;;;;;;;13.00;2.50;;;;;;;;;;5046900;28;20099;-65
2024/02/23 05:08:24;;;;;;;7.13;1.70;;;;;;;;;;5062378;28;20067;-65
2024/02/23 05:10:50;;;;;;;19.85;2.45;;;;;;;;;;5061275;28;20404;-65
2024/02/23 05:13:17;;;;;;;13.75;3.15;;;;;;;;;;5062771;28;20048;-65
2024/02/23 05:15:43;;;;;;;12.98;2.55;;;;;;;;;;5064634;28;20044;-65
2024/02/23 05:18:09;;;;;;;18.13;2.78;;;;;;;;;;5032103;28;20064;-65
2024/02/23 05:20:35;;;;;;;13.73;2.05;;;;;;;;;;5065771;28;20063;-65
2024/02/23 05:23:01;;;;;;;14.43;2.28;;;;;;;;;;5061539;28;20082;-65
2024/02/23 05:25:28;;;;;;;14.05;2.47;;;;;;;;;;5062138;28;20040;-65
2024/02/23 05:27:54;;;;;;;12.27;1.95;;;;;;;;;;5044304;28;20076;-65
2024/02/23 05:30:20;;;;;;;17.92;1.92;;;;;;;;;;5060230;28;20136;-65
2024/02/23 05:32:46;;;;;;;12.07;2.33;;;;;;;;;;5063338;28;20480;-65
2024/02/23 05:35:13;;;;;;;9.35;1.70;;;;;;;;;;5056200;28;20488;-65
2024/02/23 05:37:39;;;;;;;12.45;2.30;;;;;;;;;;5060794;28;20408;-65
2024/02/23 05:40:10;;;;;;;17.48;2.08;;;;;;;;;;5042341;28;20060;-65
2024/02/23 05:42:36;;;;;;;12.32;1.98;;;;;;;;;;5046846;28;20040;-65
2024/02/23 05:45:04;;;;;;;12.02;2.83;;;;;;;;;;5027758;28;20480;-65
2024/02/23 05:47:31;;;;;;;14.02;1.98;;;;;;;;;;5044112;28;20052;-65
2024/02/23 05:49:57;;;;;;;11.07;1.90;;;;;;;;;;5029007;28;20097;-65
2024/02/23 05:52:23;;;;;;;13.07;1.92;;;;;;;;;;5046317;28;20056;-65
2024/02/23 05:54:51;;;;;;;18.23;2.72;;;;;;;;;;5043298;28;20041;-65
2024/02/23 05:57:17;;;;;;;17.27;2.72;;;;;;;;;;5026187;28;20128;-65
2024/02/23 05:59:45;;;;;;;14.55;2.47;;;;;;;;;;5029029;28;20048;-65
2024/02/23 06:02:11;;;;;;;10.02;1.80;;;;;;;;;;5012883;28;20144;-65
2024/02/23 06:04:37;;;;;;;17.27;1.98;;;;;;;;;;5030199;28;20448;-65
2024/02/23 06:07:03;;;;;;;8.30;1.85;;;;;;;;;;5017354;28;20048;-65
2024/02/23 06:09:30;;;;;;;13.25;2.47;;;;;;;;;;5028994;28;20060;-65
2024/02/23 06:11:56;;;;;;;20.08;2.83;;;;;;;;;;5027493;28;20044;-65
2024/02/23 06:14:23;;;;;;;18.80;2.20;;;;;;;;;;5047239;28;20388;-65
2024/02/23 06:16:49;;;;;;;19.20;2.25;;;;;;;;;;5045697;28;20136;-65
2024/02/23 06:19:16;;;;;;;16.75;2.85;;;;;;;;;;5043445;28;20463;-65
2024/02/23 06:21:42;;;;;;;10.10;2.55;;;;;;;;;;5023058;28;20170;-65
2024/02/23 06:24:08;;;;;;;18.17;4.55;;;;;;;;;;5044098;28;20044;-65
2024/02/23 06:26:36;;;;;;;17.77;5.35;;;;;;;;;;5056232;28;20111;-65
2024/02/23 06:29:03;;;;;;;17.40;5.63;;;;;;;;;;5038101;28;20052;-65
2024/02/23 06:31:29;;;;;;;16.20;4.72;;;;;;;;;;5027271;28;20453;-65
2024/02/23 06:33:56;;;;;;;23.85;5.20;;;;;;;;;;5007990;28;20044;-65
2024/02/23 06:36:22;;;;;;;17.02;4.40;;;;;;;;;;5023303;28;20574;-65
2024/02/23 06:38:48;;;;;;;16.30;4.75;;;;;;;;;;5023488;28;20045;-65
2024/02/23 06:41:14;;;;;;;16.30;5.18;;;;;;;;;;5021599;28;20472;-65
2024/02/23 06:43:40;;;;;;;16.52;4.47;;;;;;;;;;5023678;28;21406;-65
2024/02/23 06:46:08;;;;;;;14.50;4.28;;;;;;;;;;5024988;28;20049;-65
2024/02/23 06:48:34;;;;;;;21.48;4.85;;;;;;;;;;5024667;28;20064;-65
2024/02/23 06:51:01;;;;;;;10.15;3.88;;;;;;;;;;5027814;28;20048;-65
2024/02/23 06:53:27;;;;;;;14.93;3.88;;;;;;;;;;5032593;28;20084;-65
2024/02/23 06:55:53;;;;;;;15.45;4.30;;;;;;;;;;5040566;28;20042;-65
2024/02/23 06:58:19;;;;;;;11.15;3.92;;;;;;;;;;5038408;28;20041;-65
2024/02/23 07:00:46;;;;;;;19.75;5.10;;;;;;;;;;5041995;28;20346;-64
2024/02/23 07:03:12;;;;;;;19.70;6.80;;;;;;;;;;5030207;28;20046;-65
2024/02/23 07:05:38;;;;;;;23.17;5.28;;;;;;;;;;5027974;28;20167;-65
2024/02/23 07:08:05;;;;;;;21.80;5.82;;;;;;;;;;5021466;28;20507;-65
2024/02/23 07:10:31;;;;;;;17.92;5.88;;;;;;;;;;5022943;28;20052;-65
2024/02/23 07:12:58;;;;;;;15.10;5.88;;;;;;;;;;5035808;28;20481;-65
2024/02/23 07:15:25;;;;;;;24.73;6.45;;;;;;;;;;5034729;28;20052;-65
2024/02/23 07:17:52;;;;;;;17.33;5.10;;;;;;;;;;5028177;28;20473;-65
2024/02/23 07:20:18;;;;;;;15.32;4.97;;;;;;;;;;5024827;28;20439;-65
2024/02/23 07:22:45;;;;;;;15.80;5.25;;;;;;;;;;5038863;28;20132;-65
2024/02/23 07:25:11;;;;;;;14.63;5.50;;;;;;;;;;5040867;28;20477;-65
2024/02/23 07:27:38;;;;;;;18.15;5.13;;;;;;;;;;5034864;28;20405;-70
2024/02/23 07:30:04;;;;;;;11.63;4.63;;;;;;;;;;5041021;28;20417;-65
2024/02/23 07:32:31;;;;;;;16.98;4.82;;;;;;;;;;5037963;28;20099;-65
2024/02/23 07:34:57;;;;;;;13.10;4.40;;;;;;;;;;5033032;28;20441;-64
2024/02/23 07:37:23;;;;;;;21.38;4.82;;;;;;;;;;5029685;28;20045;-65
2024/02/23 07:39:49;;;;;;;10.95;3.70;;;;;;;;;;5030497;28;20095;-65
2024/02/23 07:42:18;;;;;;;11.77;3.20;;;;;;;;;;5039294;28;20044;-65
2024/02/23 07:44:45;;;;;;;17.20;3.25;;;;;;;;;;5034310;28;20115;-65
2024/02/23 07:47:11;;;;;;;11.35;3.40;;;;;;;;;;5028890;28;20045;-65
2024/02/23 07:49:40;;;;;;;10.35;3.67;;;;;;;;;;5028717;28;20045;-65
2024/02/23 07:52:07;;;;;;;12.73;3.55;;;;;;;;;;5027353;28;20474;-65
2024/02/23 07:54:33;;;;;;;11.45;3.60;;;;;;;;;;5028124;28;20049;-66
2024/02/23 07:56:59;;;;;;;8.27;3.38;;;;;;;;;;5027078;28;20053;-65
2024/02/23 07:59:26;;;;;;;9.73;3.40;;;;;;;;;;5030054;28;20489;-65
2024/02/23 08:01:52;;;;;;;13.80;3.92;;;;;;;;;;5019981;28;20064;-73
2024/02/23 08:04:19;;;;;;;15.65;4.57;;;;;;;;;;5026611;28;20160;-64
2024/02/23 08:06:45;;;;;;;9.13;4.78;;;;;;;;;;5025657;28;20117;-64
2024/02/23 08:09:11;;;;;;;13.98;5.13;;;;;;;;;;5018720;28;20033;-63
2024/02/23 08:11:37;;;;;;;16.02;5.93;;;;;;;;;;5024081;28;20453;-65
2024/02/23 08:14:04;;;;;;;13.68;5.10;;;;;;;;;;5024849;28;20080;-64
2024/02/23 08:16:30;;;;;;;13.10;6.15;;;;;;;;;;5023660;28;20049;-64
2024/02/23 08:18:56;;;;;;;11.63;5.85;;;;;;;;;;5027138;28;20048;-64
2024/02/23 08:21:22;;;;;;;11.55;5.65;;;;;;;;;;5024828;28;20057;-63
2024/02/23 08:23:49;;;;;;;13.35;6.32;;;;;;;;;;5028958;28;20133;-64
2024/02/23 08:26:15;;;;;;;14.80;6.10;;;;;;;;;;5024492;28;20387;-64
2024/02/23 08:28:41;;;;;;;11.23;6.82;;;;;;;;;;5023812;28;20081;-64
2024/02/23 08:31:07;;;;;;;11.88;6.32;;;;;;;;;;5028875;28;20552;-64
2024/02/23 08:33:33;;;;;;;15.23;6.07;;;;;;;;;;5025665;28;20037;-64
2024/02/23 08:36:00;;;;;;;18.38;7.10;;;;;;;;;;5027356;28;20476;-64
2024/02/23 08:38:26;;;;;;;15.57;6.18;;;;;;;;;;5032363;28;20063;-64
2024/02/23 08:40:52;;;;;;;11.93;5.95;;;;;;;;;;5026805;28;20364;-64
2024/02/23 08:43:19;;;;;;;13.05;5.35;;;;;;;;;;5026377;28;20092;-64
2024/02/23 08:45:46;;;;;;;13.18;6.30;;;;;;;;;;5025392;28;20057;-64
2024/02/23 08:48:14;;;;;;;12.63;5.38;;;;;;;;;;5028534;28;20505;-64
2024/02/23 08:50:41;;;;;;;10.57;4.93;;;;;;;;;;5025868;28;20061;-64
2024/02/23 08:53:07;;;;;;;14.57;4.93;;;;;;;;;;5026834;28;20091;-64
2024/02/23 08:55:33;;;;;;;12.52;4.57;;;;;;;;;;5025164;28;20037;-64
2024/02/23 08:58:00;;;;;;;9.68;4.97;;;;;;;;;;5026892;28;20091;-64
2024/02/23 09:00:26;;;;;;;19.27;4.70;;;;;;;;;;5024487;28;20476;-64
2024/02/23 09:02:52;;;;;;;13.70;3.72;;;;;;;;;;5023739;28;20041;-64
2024/02/23 09:05:19;;;;;;;6.07;2.95;;;;;;;;;;5026231;28;20052;-66
2024/02/23 09:07:45;;;;;;;8.75;4.18;;;;;;;;;;5026247;28;20532;-66
2024/02/23 09:10:11;;;;;;;14.75;3.90;;;;;;;;;;5026756;28;21234;-66
2024/02/23 09:12:38;;;;;;;9.15;2.78;;;;;;;;;;5026899;28;20540;-66
2024/02/23 09:15:05;;;;;;;10.68;2.80;;;;;;;;;;5026104;28;20057;-66
2024/02/23 09:17:31;;;;;;;7.50;2.55;;;;;;;;;;5025375;28;20064;-66
2024/02/23 09:19:57;;;;;;;7.32;2.30;;;;;;;;;;5027798;28;20385;-73
2024/02/23 09:22:24;;;;;;;7.57;2.33;;;;;;;;;;5022719;28;20057;-81
2024/02/23 09:24:50;;;;;;;13.70;2.33;;;;;;;;;;5026242;28;20099;-66
2024/02/23 09:27:16;;;;;;;13.07;2.78;;;;;;;;;;5026536;28;20068;-67
2024/02/23 09:29:42;;;;;;;8.13;2.10;;;;;;;;;;5021055;28;20042;-66
2024/02/23 09:32:09;;;;;;;7.85;2.17;;;;;;;;;;5025823;28;20423;-66
2024/02/23 09:34:35;;;;;;;5.43;1.60;;;;;;;;;;5021208;28;20401;-66
2024/02/23 09:37:01;;;;;;;7.03;1.80;;;;;;;;;;5020151;28;20121;-66
2024/02/23 09:39:30;;;;;;;10.15;1.85;;;;;;;;;;5024868;28;20108;-66
2024/02/23 09:41:57;;;;;;;8.13;1.73;;;;;;;;;;5020576;28;20096;-66
2024/02/23 09:44:23;;;;;;;7.53;1.63;;;;;;;;;;5021814;28;20077;-66
2024/02/23 09:46:50;;;;;;;8.73;2.28;;;;;;;;;;5023241;28;20054;-66
2024/02/23 09:49:16;;;;;;;8.82;1.50;;;;;;;;;;5018230;28;20068;-66
2024/02/23 09:51:43;;;;;;;7.45;1.90;;;;;;;;;;5016218;28;20044;-66
2024/02/23 09:54:10;;;;;;;7.28;2.33;;;;;;;;;;5016958;28;20049;-66
2024/02/23 09:56:37;;;;;;;8.35;1.98;;;;;;;;;;5019707;28;20089;-66
2024/02/23 09:59:04;;;;;;;8.75;2.20;;;;;;;;;;5020567;28;20048;-66
2024/02/23 10:01:32;;;;;;;7.10;1.95;;;;;;;;;;5014056;28;20154;-65
2024/02/23 10:03:59;;;;;;;7.85;2.08;;;;;;;;;;5017401;28;20042;-71
2024/02/23 10:06:26;;;;;;;8.57;2.30;;;;;;;;;;5017059;28;20175;-71
2024/02/23 10:08:53;;;;;;;8.73;2.05;;;;;;;;;;5020651;28;20076;-71
2024/02/23 10:11:21;;;;;;;8.18;2.30;;;;;;;;;;5021732;28;20089;-65
2024/02/23 10:13:49;;;;;;;7.43;2.10;;;;;;;;;;5022682;28;20375;-65
2024/02/23 10:16:16;;;;;;;5.63;1.70;;;;;;;;;;5022773;28;20545;-65
2024/02/23 10:18:42;;;;;;;9.45;2.30;;;;;;;;;;5023406;28;20096;-65
2024/02/23 10:21:08;;;;;;;8.32;2.58;;;;;;;;;;5026965;28;20603;-65
2024/02/23 10:23:35;;;;;;;7.85;2.40;;;;;;;;;;5023657;28;20087;-66
2024/02/23 10:26:01;;;;;;;12.60;3.35;;;;;;;;;;5021398;28;20476;-65
2024/02/23 10:28:27;;;;;;;12.82;2.85;;;;;;;;;;5023993;28;20087;-64
2024/02/23 10:30:54;;;;;;;8.80;2.75;;;;;;;;;;5040809;28;20091;-65
2024/02/23 10:33:23;;;;;;;10.18;2.95;;;;;;;;;;5024943;28;20128;-64
2024/02/23 10:35:55;;;;;;;9.70;3.10;;;;;;;;;;5026013;28;20080;-64
2024/02/23 10:38:21;;;;;;;7.75;2.97;;;;;;;;;;5026222;28;20041;-64
2024/02/23 10:40:48;;;;;;;11.10;2.38;;;;;;;;;;5025119;28;20037;-64
2024/02/23 10:43:17;;;;;;;8.93;2.63;;;;;;;;;;5023830;28;20121;-64
2024/02/23 10:45:44;;;;;;;8.45;2.30;;;;;;;;;;5022616;28;20041;-64
2024/02/23 10:48:10;;;;;;;12.45;3.05;;;;;;;;;;5019925;28;20148;-64
2024/02/23 10:50:37;;;;;;;7.35;1.95;;;;;;;;;;5014750;28;20481;-65
2024/02/23 10:53:05;;;;;;;9.52;3.30;;;;;;;;;;5018582;28;20111;-64
2024/02/23 10:55:32;;;;;;;10.85;2.50;;;;;;;;;;5023704;28;20132;-64
2024/02/23 10:57:59;;;;;;;8.52;2.38;;;;;;;;;;5017408;28;20062;-64
2024/02/23 11:00:25;;;;;;;10.15;2.72;;;;;;;;;;5025848;28;20436;-78
2024/02/23 11:02:52;;;;;;;8.93;3.05;;;;;;;;;;5016126;28;20067;-71
2024/02/23 11:05:19;;;;;;;10.68;3.42;;;;;;;;;;5022369;28;20173;-69
2024/02/23 11:07:49;;;;;;;6.65;2.28;;;;;;;;;;5017019;28;20053;-64
2024/02/23 11:10:15;;;;;;;12.02;2.45;;;;;;;;;;5015211;28;20527;-66
2024/02/23 11:12:42;;;;;;;9.40;2.42;;;;;;;;;;5024782;28;20086;-66
2024/02/23 11:15:08;;;;;;;11.60;2.15;;;;;;;;;;5018516;28;20117;-66
2024/02/23 11:17:38;;;;;;;7.22;2.33;;;;;;;;;;5016353;28;20083;-64
2024/02/23 11:20:05;;;;;;;10.38;2.45;;;;;;;;;;5011116;28;20482;-64
2024/02/23 11:22:32;;;;;;;8.13;2.22;;;;;;;;;;5010974;28;20057;-64
2024/02/23 11:25:04;;;;;;;7.85;2.38;;;;;;;;;;5021137;28;20049;-65
2024/02/23 11:27:31;;;;;;;15.13;2.40;;;;;;;;;;5019743;28;20139;-65
2024/02/23 11:30:05;;;;;;;6.90;2.25;;;;;;;;;;5026586;28;20417;-64
2024/02/23 11:32:41;;;;;;;6.63;2.10;;;;;;;;;;5023786;28;20128;-63
2024/02/23 11:35:08;;;;;;;12.73;3.20;;;;;;;;;;5027919;28;20094;-65
2024/02/23 11:37:44;;;;;;;10.60;2.80;;;;;;;;;;5024637;28;20132;-65
2024/02/23 11:40:12;;;;;;;8.13;2.83;;;;;;;;;;5026881;28;20099;-65
2024/02/23 11:42:39;;;;;;;7.20;2.33;;;;;;;;;;5021652;28;20053;-65
2024/02/23 11:45:05;;;;;;;7.90;1.77;;;;;;;;;;5019743;28;20173;-65
2024/02/23 11:47:32;;;;;;;6.20;1.98;;;;;;;;;;5025978;28;20056;-65
2024/02/23 11:49:58;;;;;;;9.10;2.35;;;;;;;;;;5026527;28;20045;-65
2024/02/23 11:52:24;;;;;;;7.82;2.42;;;;;;;;;;5019809;28;20053;-65
2024/02/23 11:54:50;;;;;;;7.00;2.05;;;;;;;;;;5022179;28;20072;-65
2024/02/23 11:57:17;;;;;;;13.68;2.10;;;;;;;;;;5024796;28;20049;-65
2024/02/23 11:59:43;;;;;;;13.77;2.30;;;;;;;;;;5024719;28;20359;-65
2024/02/23 12:02:09;;;;;;;9.30;1.95;;;;;;;;;;5020346;28;20401;-67
2024/02/23 12:04:35;;;;;;;8.68;1.83;;;;;;;;;;5024222;28;20053;-65
2024/02/23 12:07:01;;;;;;;11.98;2.78;;;;;;;;;;5024486;28;20041;-65
2024/02/23 12:09:28;;;;;;;9.80;1.98;;;;;;;;;;5021579;28;20099;-66
2024/02/23 12:11:54;;;;;;;7.60;1.80;;;;;;;;;;5018958;28;20425;-66
2024/02/23 12:14:21;;;;;;;6.70;2.13;;;;;;;;;;5016266;28;20053;-67
2024/02/23 12:16:47;;;;;;;7.47;2.03;;;;;;;;;;5020634;28;20071;-65
2024/02/23 12:19:13;;;;;;;7.88;2.00;;;;;;;;;;5020509;28;20446;-65
2024/02/23 12:21:39;;;;;;;8.23;2.05;;;;;;;;;;5022307;28;20044;-64
2024/02/23 12:24:07;;;;;;;5.43;1.83;;;;;;;;;;5020388;28;20041;-64
2024/02/23 12:26:34;;;;;;;8.15;2.45;;;;;;;;;;5017409;28;20476;-65
2024/02/23 12:29:02;;;;;;;11.45;2.42;;;;;;;;;;5023901;28;20076;-65
2024/02/23 12:31:29;;;;;;;10.82;2.60;;;;;;;;;;5020212;28;20144;-65
2024/02/23 12:33:57;;;;;;;7.47;2.35;;;;;;;;;;5021236;28;20056;-65
2024/02/23 12:36:24;;;;;;;6.70;2.03;;;;;;;;;;5025263;28;20045;-65
2024/02/23 12:38:50;;;;;;;8.95;2.47;;;;;;;;;;5025015;28;20046;-65
2024/02/23 12:41:16;;;;;;;7.85;2.33;;;;;;;;;;5018336;28;20057;-65
2024/02/23 12:43:42;;;;;;;5.78;1.65;;;;;;;;;;5025540;28;20049;-65
2024/02/23 12:46:08;;;;;;;6.60;1.55;;;;;;;;;;5027293;28;20111;-65
2024/02/23 12:48:35;;;;;;;6.13;1.70;;;;;;;;;;5021647;28;20055;-64
2024/02/23 12:51:01;;;;;;;8.02;2.75;;;;;;;;;;5030234;28;20490;-65
2024/02/23 12:53:32;;;;;;;5.28;1.15;;;;;;;;;;5026214;28;20033;-65
2024/02/23 12:55:59;;;;;;;7.30;1.35;;;;;;;;;;5026680;28;20092;-65
2024/02/23 12:58:25;;;;;;;8.95;1.92;;;;;;;;;;5037209;28;20087;-65
2024/02/23 13:00:52;;;;;;;7.00;1.55;;;;;;;;;;5054763;28;20055;-65
2024/02/23 13:03:18;;;;;;;8.80;2.40;;;;;;;;;;5038180;28;20071;-65
2024/02/23 13:05:44;;;;;;;6.30;1.70;;;;;;;;;;5042346;28;20049;-65
2024/02/23 13:08:10;;;;;;;8.95;2.28;;;;;;;;;;5037924;28;20357;-65
2024/02/23 13:10:36;;;;;;;7.60;1.85;;;;;;;;;;5034866;28;20041;-65
2024/02/23 13:13:03;;;;;;;9.52;2.03;;;;;;;;;;5034583;28;20175;-65
2024/02/23 13:15:29;;;;;;;10.95;2.38;;;;;;;;;;5036223;28;20052;-65
2024/02/23 13:17:57;;;;;;;8.18;1.75;;;;;;;;;;5044156;28;20334;-65
2024/02/23 13:20:23;;;;;;;17.42;4.80;;;;;;;;;;5041572;28;20507;-65
2024/02/23 13:22:50;;;;;;;11.40;3.03;;;;;;;;;;5035804;28;20413;-65
2024/02/23 13:25:16;;;;;;;6.72;1.90;;;;;;;;;;5042112;28;20037;-65
2024/02/23 13:27:43;;;;;;;11.02;1.85;;;;;;;;;;5041301;28;20471;-65
2024/02/23 13:30:09;;;;;;;9.32;1.50;;;;;;;;;;5039503;28;20121;-65
2024/02/23 13:32:35;;;;;;;11.75;1.95;;;;;;;;;;5039333;28;20068;-65
2024/02/23 13:35:04;;;;;;;7.68;1.55;;;;;;;;;;5034594;28;20128;-65
2024/02/23 13:37:30;;;;;;;16.45;2.28;;;;;;;;;;5038203;28;20056;-65
2024/02/23 13:39:57;;;;;;;8.90;1.42;;;;;;;;;;5036742;28;20110;-65
2024/02/23 13:42:23;;;;;;;6.80;1.38;;;;;;;;;;5035302;28;20093;-64
2024/02/23 13:44:49;;;;;;;8.82;0.95;;;;;;;;;;5023783;28;20133;-65
2024/02/23 13:47:16;;;;;;;4.88;1.05;;;;;;;;;;5041803;28;20124;-65
2024/02/23 13:49:42;;;;;;;6.03;1.33;;;;;;;;;;5037399;28;20056;-65
2024/02/23 13:52:08;;;;;;;7.05;1.10;;;;;;;;;;5039209;28;20156;-65
2024/02/23 13:54:34;;;;;;;6.35;1.05;;;;;;;;;;5036629;28;20520;-65
2024/02/23 13:57:00;;;;;;;6.25;1.30;;;;;;;;;;5037962;28;20171;-64
2024/02/23 13:59:27;;;;;;;4.85;1.05;;;;;;;;;;5026219;28;20046;-65
2024/02/23 14:01:53;;;;;;;6.30;1.10;;;;;;;;;;5023536;28;20144;-64
2024/02/23 14:04:19;;;;;;;6.88;1.30;;;;;;;;;;5025090;28;20087;-65
2024/02/23 14:06:45;;;;;;;6.35;1.02;;;;;;;;;;5024579;28;20049;-64
2024/02/23 14:09:12;;;;;;;8.80;1.42;;;;;;;;;;5028763;28;20057;-64
2024/02/23 14:11:39;;;;;;;8.63;1.90;;;;;;;;;;5026736;28;20049;-65
2024/02/23 14:14:07;;;;;;;8.57;1.25;;;;;;;;;;5027958;28;20049;-65
2024/02/23 14:16:34;;;;;;;9.25;1.15;;;;;;;;;;5030580;28;20064;-65
2024/02/23 14:19:01;;;;;;;10.90;1.67;;;;;;;;;;5026809;28;20042;-65
2024/02/23 14:21:27;;;;;;;5.60;1.10;;;;;;;;;;5023621;28;20052;-65
2024/02/23 14:23:53;;;;;;;11.20;1.38;;;;;;;;;;5019272;28;20051;-65
2024/02/23 14:26:20;;;;;;;7.85;1.45;;;;;;;;;;5022339;28;20042;-65
2024/02/23 14:28:46;;;;;;;9.52;1.52;;;;;;;;;;5024832;28;20975;-65